Terminal Aerodrome Forecast
Issued by NWS Tampa Bay Area, FL

Home | Current Version | Previous Version | Text Only | Print | Product List | Glossary On
Versions: 1 2 3 4 5 6 7 8 9 10 11 12 13 14 15 16 17 18 19 20 21 22 23 24 25
210
FTUS42 KTBW 170531
TAFTPA
TAF
KTPA 170531Z 1706/1812 VRB03KT P6SM FEW250
     FM171400 33008KT P6SM SCT035 BKN250
     FM171800 32013G20KT P6SM BKN035 BKN250
     FM180100 34009G14KT P6SM SKC=

USA.gov is the U.S. government's official web portal to all federal, state and local government web resources and services.